createdAt,value
2018-06-28T00:02:19.818Z,14.02
2018-06-28T00:04:49.912Z,14.01
2018-06-28T00:07:20.264Z,14.01
2018-06-28T00:09:50.013Z,14.00
2018-06-28T00:12:19.774Z,13.97
2018-06-28T00:14:49.622Z,13.95
2018-06-28T00:17:19.399Z,13.93
2018-06-28T00:19:49.226Z,13.94
2018-06-28T00:22:18.830Z,13.92
2018-06-28T00:24:48.245Z,13.92
2018-06-28T00:27:17.829Z,13.85
2018-06-28T00:29:47.707Z,13.84
2018-06-28T00:32:17.346Z,13.83
2018-06-28T00:34:47.230Z,13.82
2018-06-28T00:37:16.831Z,13.79
2018-06-28T00:39:46.271Z,13.77
2018-06-28T00:42:16.015Z,13.75
2018-06-28T00:44:45.709Z,13.75
2018-06-28T00:47:15.453Z,13.76
2018-06-28T00:49:45.170Z,13.73
2018-06-28T00:52:14.816Z,13.74
2018-06-28T00:54:44.243Z,13.71
2018-06-28T00:57:15.766Z,13.67
2018-06-28T00:59:45.130Z,13.66
2018-06-28T01:02:16.245Z,13.67
2018-06-28T01:04:46.032Z,13.61
2018-06-28T01:07:17.839Z,13.59
2018-06-28T01:09:47.413Z,13.64
2018-06-28T01:12:17.100Z,13.57
2018-06-28T01:14:46.639Z,13.59
2018-06-28T01:17:16.577Z,13.54
2018-06-28T01:19:46.161Z,13.52
2018-06-28T01:22:15.926Z,13.49
2018-06-28T01:24:45.723Z,13.61
2018-06-28T01:27:15.255Z,13.51
2018-06-28T01:29:44.890Z,13.49
2018-06-28T01:32:14.982Z,13.45
2018-06-28T01:34:44.412Z,13.42
2018-06-28T01:37:13.830Z,13.39
2018-06-28T01:39:43.600Z,13.38
2018-06-28T01:44:25.105Z,13.40
2018-06-28T01:46:54.834Z,13.39
2018-06-28T01:49:24.394Z,13.38
2018-06-28T01:51:53.786Z,13.37
2018-06-28T01:54:23.280Z,13.34
2018-06-28T01:56:52.931Z,13.34
2018-06-28T01:59:22.480Z,13.33
2018-06-28T02:01:51.915Z,13.32
2018-06-28T02:04:21.859Z,13.30
2018-06-28T02:06:51.621Z,13.36
2018-06-28T02:09:21.086Z,13.33
2018-06-28T02:11:50.480Z,13.30
2018-06-28T02:14:20.113Z,13.29
2018-06-28T02:16:49.635Z,13.29
2018-06-28T02:19:19.325Z,13.28
2018-06-28T02:21:48.675Z,13.26
2018-06-28T02:24:18.174Z,13.26
2018-06-28T02:26:48.485Z,13.25
2018-06-28T02:29:18.179Z,13.23
2018-06-28T02:31:47.934Z,13.23
2018-06-28T02:34:17.675Z,13.23
2018-06-28T02:36:47.505Z,13.26
2018-06-28T02:39:17.080Z,13.25
2018-06-28T02:41:46.583Z,13.25
2018-06-28T02:44:16.442Z,13.21
2018-06-28T02:46:46.297Z,13.22
2018-06-28T02:49:16.229Z,13.19
2018-06-28T02:51:45.610Z,13.19
2018-06-28T02:54:15.300Z,13.18
2018-06-28T02:56:44.904Z,13.18
2018-06-28T02:59:14.578Z,13.20
2018-06-28T03:01:44.586Z,13.20
2018-06-28T03:04:14.329Z,13.20
2018-06-28T03:06:43.667Z,13.23
2018-06-28T03:09:13.513Z,13.25
2018-06-28T03:11:42.820Z,13.26
2018-06-28T03:14:12.475Z,13.21
2018-06-28T03:16:41.852Z,13.35
2018-06-28T03:19:11.595Z,13.34
2018-06-28T03:21:40.963Z,13.37
2018-06-28T03:24:10.807Z,13.31
2018-06-28T03:26:40.540Z,13.24
2018-06-28T03:29:10.009Z,13.35
2018-06-28T03:31:39.437Z,13.22
2018-06-28T03:34:13.467Z,13.16
2018-06-28T03:36:43.121Z,13.20
2018-06-28T03:39:14.090Z,13.16
2018-06-28T03:41:43.915Z,13.23
2018-06-28T03:44:14.605Z,13.18
2018-06-28T03:46:44.153Z,13.19
2018-06-28T03:49:13.849Z,13.14
2018-06-28T03:51:43.368Z,13.12
2018-06-28T03:54:13.033Z,13.11
2018-06-28T03:56:42.658Z,13.10
2018-06-28T03:59:12.283Z,13.12
2018-06-28T04:01:42.015Z,13.20
2018-06-28T04:04:11.769Z,13.16
2018-06-28T04:06:41.584Z,13.23
2018-06-28T04:09:12.562Z,13.22
2018-06-28T04:11:42.000Z,13.28
2018-06-28T04:14:11.855Z,13.30
2018-06-28T04:16:41.603Z,13.29
2018-06-28T04:19:11.282Z,13.30
2018-06-28T04:21:40.719Z,13.28
2018-06-28T04:24:10.492Z,13.26
2018-06-28T04:26:40.040Z,13.29
2018-06-28T04:29:09.699Z,13.27
2018-06-28T04:31:39.484Z,13.34
2018-06-28T04:34:09.222Z,13.30
2018-06-28T04:36:38.828Z,13.29
2018-06-28T04:39:11.293Z,13.33
2018-06-28T04:41:41.157Z,13.33
2018-06-28T04:44:10.842Z,13.31
2018-06-28T04:46:40.567Z,13.35
2018-06-28T04:49:10.179Z,13.37
2018-06-28T04:51:39.914Z,13.40
2018-06-28T04:54:09.548Z,13.42
2018-06-28T04:56:38.985Z,13.48
2018-06-28T04:59:08.660Z,13.50
2018-06-28T05:01:38.350Z,13.47
2018-06-28T05:04:08.124Z,13.49
2018-06-28T05:06:37.751Z,13.53
2018-06-28T05:09:09.675Z,13.53
2018-06-28T05:11:39.325Z,13.58
2018-06-28T05:14:09.521Z,13.63
2018-06-28T05:16:39.275Z,13.69
2018-06-28T05:19:09.056Z,13.73
2018-06-28T05:21:38.853Z,13.75
2018-06-28T05:24:08.870Z,13.81
2018-06-28T05:26:38.344Z,13.84
2018-06-28T05:29:08.195Z,13.82
2018-06-28T05:31:37.885Z,13.88
2018-06-28T05:34:07.650Z,13.90
2018-06-28T05:36:37.400Z,13.89
2018-06-28T05:39:10.861Z,13.97
2018-06-28T05:41:40.432Z,14.02
2018-06-28T05:44:10.267Z,14.06
2018-06-28T05:46:39.918Z,14.13
2018-06-28T05:49:10.026Z,14.08
2018-06-28T05:51:39.753Z,14.07
2018-06-28T05:54:09.682Z,14.11
2018-06-28T05:56:39.385Z,14.17
2018-06-28T05:59:09.752Z,14.20
2018-06-28T06:01:39.451Z,14.24
2018-06-28T06:04:09.056Z,14.29
2018-06-28T06:06:38.761Z,14.35
2018-06-28T06:09:10.679Z,14.35
2018-06-28T06:11:40.419Z,14.41
2018-06-28T06:14:09.938Z,14.38
2018-06-28T06:16:39.980Z,14.40
2018-06-28T06:19:09.686Z,14.43
2018-06-28T06:21:39.441Z,14.46
2018-06-28T06:24:08.943Z,14.53
2018-06-28T06:26:38.767Z,14.52
2018-06-28T06:29:08.528Z,14.57
2018-06-28T06:31:38.222Z,14.62
2018-06-28T06:34:08.020Z,14.68
2018-06-28T06:36:37.701Z,14.74
2018-06-28T06:39:12.320Z,14.72
2018-06-28T06:41:42.014Z,14.73
2018-06-28T06:44:11.621Z,14.72
2018-06-28T06:46:41.422Z,14.72
2018-06-28T06:49:11.148Z,14.74
2018-06-28T06:51:40.730Z,14.76
2018-06-28T06:54:10.255Z,14.80
2018-06-28T06:56:39.872Z,14.84
2018-06-28T06:59:10.548Z,14.90
2018-06-28T07:01:40.415Z,14.98
2018-06-28T07:04:12.092Z,14.96
2018-06-28T07:06:41.809Z,14.87
2018-06-28T07:09:14.362Z,14.89
2018-06-28T07:11:43.921Z,14.96
2018-06-28T07:14:14.543Z,15.00
2018-06-28T07:16:44.283Z,15.08
2018-06-28T07:19:14.795Z,15.13
2018-06-28T07:21:44.582Z,15.31
2018-06-28T07:24:15.415Z,15.37
2018-06-28T07:26:45.137Z,15.52
2018-06-28T07:29:15.624Z,15.61
2018-06-28T07:31:45.705Z,15.60
2018-06-28T07:34:15.799Z,15.68
2018-06-28T07:36:45.702Z,15.83
2018-06-28T07:39:15.400Z,15.91
2018-06-28T07:41:45.533Z,16.01
2018-06-28T07:44:15.108Z,16.18
2018-06-28T07:46:44.952Z,16.20
2018-06-28T07:49:14.654Z,16.24
2018-06-28T07:51:44.257Z,16.27
2018-06-28T07:54:13.967Z,16.37
2018-06-28T07:56:43.781Z,16.34
2018-06-28T07:59:13.602Z,16.39
2018-06-28T08:01:43.440Z,16.38
2018-06-28T08:04:13.049Z,16.45
2018-06-28T08:06:42.863Z,16.49
2018-06-28T08:09:12.579Z,16.54
2018-06-28T08:11:42.507Z,16.67
2018-06-28T08:14:12.138Z,16.69
2018-06-28T08:16:41.848Z,16.69
2018-06-28T08:19:11.936Z,16.67
2018-06-28T08:21:41.798Z,16.66
2018-06-28T08:24:11.464Z,16.65
2018-06-28T08:26:41.250Z,16.45
2018-06-28T08:29:11.603Z,16.42
2018-06-28T08:31:41.416Z,16.44
2018-06-28T08:34:11.227Z,16.40
2018-06-28T08:36:41.117Z,16.33
2018-06-28T08:39:11.321Z,16.43
2018-06-28T08:41:41.375Z,16.35
2018-06-28T08:44:11.122Z,16.47
2018-06-28T08:46:40.889Z,16.39
2018-06-28T08:49:10.655Z,16.20
2018-06-28T08:51:40.304Z,16.07
2018-06-28T08:54:10.015Z,16.01
2018-06-28T08:56:39.635Z,16.07
2018-06-28T08:59:09.387Z,16.14
2018-06-28T09:01:39.153Z,16.09
2018-06-28T09:04:08.913Z,15.99
2018-06-28T09:06:38.641Z,16.07
2018-06-28T09:09:11.300Z,16.07
2018-06-28T09:11:41.690Z,16.25
2018-06-28T09:14:12.073Z,16.37
2018-06-28T09:16:41.833Z,16.43
2018-06-28T09:19:11.616Z,16.52
2018-06-28T09:21:41.446Z,16.53
2018-06-28T09:24:11.066Z,16.52
2018-06-28T09:26:41.285Z,16.40
2018-06-28T09:29:11.035Z,16.48
2018-06-28T09:31:40.735Z,16.50
2018-06-28T09:34:10.258Z,16.50
2018-06-28T09:36:40.246Z,16.51
2018-06-28T09:39:11.932Z,16.54
2018-06-28T09:41:41.780Z,16.47
2018-06-28T09:44:11.580Z,16.40
2018-06-28T09:46:41.725Z,16.39
2018-06-28T09:49:11.378Z,16.36
2018-06-28T09:51:41.210Z,16.34
2018-06-28T09:54:11.110Z,16.41
2018-06-28T09:56:40.888Z,16.41
2018-06-28T09:59:10.629Z,16.37
2018-06-28T10:01:40.604Z,16.53
2018-06-28T10:04:10.122Z,16.58
2018-06-28T10:06:39.916Z,16.57
2018-06-28T10:09:11.063Z,16.50
2018-06-28T10:11:41.106Z,16.55
2018-06-28T10:14:10.802Z,16.62
2018-06-28T10:16:40.602Z,16.56
2018-06-28T10:19:10.343Z,16.68
2018-06-28T10:21:40.097Z,16.61
2018-06-28T10:24:09.759Z,16.64
2018-06-28T10:26:39.609Z,16.61
2018-06-28T10:29:09.409Z,16.61
2018-06-28T10:31:39.146Z,16.57
2018-06-28T10:34:08.867Z,16.50
2018-06-28T10:36:38.546Z,16.60
2018-06-28T10:39:10.958Z,16.52
2018-06-28T10:41:40.682Z,16.55
2018-06-28T10:44:10.376Z,16.56
2018-06-28T10:46:40.026Z,16.55
2018-06-28T10:49:09.825Z,16.59
2018-06-28T10:51:39.533Z,16.57
2018-06-28T10:54:09.301Z,16.58
2018-06-28T10:56:38.951Z,16.63
2018-06-28T10:59:08.645Z,16.67
2018-06-28T11:01:38.540Z,16.70
2018-06-28T11:04:08.270Z,16.81
2018-06-28T11:06:38.082Z,16.88
2018-06-28T11:09:11.036Z,16.89
2018-06-28T11:11:41.676Z,16.92
2018-06-28T11:14:11.315Z,16.90
2018-06-28T11:16:40.977Z,16.98
2018-06-28T11:19:10.669Z,16.94
2018-06-28T11:21:41.368Z,17.02
2018-06-28T11:24:10.899Z,16.98
2018-06-28T11:26:40.703Z,17.04
2018-06-28T11:29:10.340Z,17.05
2018-06-28T11:31:40.153Z,17.12
2018-06-28T11:34:09.850Z,17.21
2018-06-28T11:36:39.645Z,17.16
2018-06-28T11:39:10.992Z,17.18
2018-06-28T11:41:41.761Z,17.18
2018-06-28T11:44:11.847Z,17.23
2018-06-28T11:46:41.725Z,17.30
2018-06-28T11:49:11.388Z,17.24
2018-06-28T11:51:41.196Z,17.35
2018-06-28T11:54:10.885Z,17.39
2018-06-28T11:56:40.664Z,17.47
2018-06-28T11:59:10.335Z,17.48
2018-06-28T12:01:40.108Z,17.50
2018-06-28T12:04:09.856Z,17.48
2018-06-28T12:06:39.637Z,17.50
2018-06-28T12:09:11.941Z,17.51
2018-06-28T12:11:42.328Z,17.51
2018-06-28T12:14:12.078Z,17.57
2018-06-28T12:16:41.813Z,17.63
2018-06-28T12:19:11.614Z,17.57
2018-06-28T12:21:41.381Z,17.55
2018-06-28T12:24:11.167Z,17.47
2018-06-28T12:26:40.994Z,17.48
2018-06-28T12:29:10.678Z,17.52
2018-06-28T12:31:40.418Z,17.43
2018-06-28T12:34:10.741Z,17.44
2018-06-28T12:36:40.261Z,17.41
2018-06-28T12:39:11.312Z,17.40
2018-06-28T12:41:41.223Z,17.36
2018-06-28T12:44:10.994Z,17.32
2018-06-28T12:47:56.493Z,17.28
2018-06-28T12:50:26.228Z,17.35
2018-06-28T12:53:00.852Z,17.31
2018-06-28T12:56:39.048Z,17.28
2018-06-28T12:59:13.632Z,17.26
2018-06-28T13:01:43.637Z,17.28
2018-06-28T13:04:13.399Z,17.32
2018-06-28T13:06:43.190Z,17.34
2018-06-28T13:09:16.597Z,17.37
2018-06-28T13:11:46.537Z,17.40
2018-06-28T13:14:16.289Z,17.44
2018-06-28T13:16:46.089Z,17.47
2018-06-28T13:19:15.810Z,17.45
2018-06-28T13:21:45.552Z,17.46
2018-06-28T13:24:15.302Z,17.53
2018-06-28T13:26:45.064Z,17.65
2018-06-28T13:29:14.788Z,17.69
2018-06-28T13:31:44.589Z,17.67
2018-06-28T13:34:14.336Z,17.71
2018-06-28T13:36:44.277Z,17.73
2018-06-28T13:39:13.931Z,17.74
2018-06-28T13:41:44.027Z,17.74
2018-06-28T13:44:13.409Z,17.72
2018-06-28T13:46:43.345Z,17.64
2018-06-28T13:49:13.124Z,17.64
2018-06-28T13:51:42.797Z,17.61
2018-06-28T13:54:12.442Z,17.63
2018-06-28T13:56:42.345Z,17.59
2018-06-28T13:59:11.942Z,17.65
2018-06-28T14:01:41.550Z,17.68
2018-06-28T14:04:11.462Z,17.78
2018-06-28T14:06:41.205Z,17.86
2018-06-28T14:09:12.884Z,17.90
2018-06-28T14:11:43.315Z,17.98
2018-06-28T14:14:13.039Z,17.94
2018-06-28T14:16:42.583Z,18.04
2018-06-28T14:19:12.291Z,18.02
2018-06-28T14:21:42.006Z,18.04
2018-06-28T14:24:11.759Z,18.00
2018-06-28T14:26:41.323Z,18.00
2018-06-28T14:29:11.008Z,17.97
2018-06-28T14:31:40.769Z,17.92
2018-06-28T14:34:10.350Z,17.91
2018-06-28T14:36:39.871Z,17.83
2018-06-28T14:39:11.004Z,17.77
2018-06-28T14:41:41.110Z,17.79
2018-06-28T14:44:10.867Z,17.78
2018-06-28T14:46:40.980Z,17.76
2018-06-28T14:49:10.752Z,17.73
2018-06-28T14:51:41.372Z,17.80
2018-06-28T14:54:10.976Z,17.76
2018-06-28T14:56:41.942Z,17.84
2018-06-28T14:59:11.689Z,17.95
2018-06-28T15:01:42.069Z,18.03
2018-06-28T15:04:11.829Z,18.16
2018-06-28T15:06:41.580Z,18.31
2018-06-28T15:09:12.971Z,18.31
2018-06-28T15:11:45.312Z,18.34
2018-06-28T15:14:15.678Z,18.33
2018-06-28T15:16:46.324Z,18.33
2018-06-28T15:19:16.101Z,18.35
2018-06-28T15:21:46.044Z,18.33
2018-06-28T15:24:15.947Z,18.31
2018-06-28T15:26:45.736Z,18.32
2018-06-28T15:29:15.458Z,18.32
2018-06-28T15:31:45.249Z,18.22
2018-06-28T15:34:15.638Z,18.23
2018-06-28T15:36:45.373Z,18.21
2018-06-28T15:39:15.131Z,18.24
2018-06-28T15:41:44.919Z,18.24
2018-06-28T15:44:14.740Z,18.30
2018-06-28T15:46:44.409Z,18.43
2018-06-28T15:49:14.498Z,18.48
2018-06-28T15:51:44.131Z,18.67
2018-06-28T15:54:13.938Z,18.69
2018-06-28T15:56:43.641Z,18.71
2018-06-28T15:59:13.547Z,18.76
2018-06-28T16:01:43.300Z,18.75
2018-06-28T16:04:13.075Z,18.82
2018-06-28T16:06:42.657Z,18.75
2018-06-28T16:09:12.391Z,18.60
2018-06-28T16:11:42.183Z,18.47
2018-06-28T16:14:11.979Z,18.37
2018-06-28T16:16:41.855Z,18.28
2018-06-28T16:19:11.799Z,18.20
2018-06-28T16:21:41.461Z,18.14
2018-06-28T16:24:11.469Z,18.09
2018-06-28T16:26:41.231Z,18.01
2018-06-28T16:29:10.989Z,18.01
2018-06-28T16:31:40.759Z,17.98
2018-06-28T16:34:10.474Z,18.02
2018-06-28T16:36:40.405Z,17.86
2018-06-28T16:39:11.626Z,17.79
2018-06-28T16:41:41.352Z,17.86
2018-06-28T16:44:10.997Z,17.94
2018-06-28T16:46:40.767Z,18.08
2018-06-28T16:49:10.200Z,18.12
2018-06-28T16:51:39.778Z,18.13
2018-06-28T16:54:09.479Z,18.16
2018-06-28T16:56:39.043Z,18.13
2018-06-28T16:59:08.758Z,18.15
2018-06-28T17:01:38.359Z,18.24
2018-06-28T17:04:08.507Z,18.34
2018-06-28T17:07:09.737Z,18.42
2018-06-28T17:09:40.811Z,18.43
2018-06-28T17:12:10.516Z,18.49
2018-06-28T17:14:40.615Z,18.52
2018-06-28T17:17:10.980Z,18.68
2018-06-28T17:20:09.472Z,18.98
2018-06-28T17:22:43.520Z,19.45
2018-06-28T17:25:20.961Z,19.64
2018-06-28T17:27:52.844Z,19.87
2018-06-28T17:30:23.734Z,19.84
2018-06-28T17:32:54.543Z,20.04
2018-06-28T17:35:24.918Z,20.42
2018-06-28T17:37:56.842Z,20.96
2018-06-28T17:40:32.316Z,20.92
2018-06-28T17:43:05.943Z,20.88
2018-06-28T17:45:41.731Z,20.78
2018-06-28T17:48:13.620Z,20.50
2018-06-28T17:50:46.147Z,20.32
2018-06-28T17:53:20.224Z,20.07
2018-06-28T17:55:51.943Z,19.74
2018-06-28T17:58:25.020Z,19.55
2018-06-28T18:00:54.640Z,19.38
2018-06-28T18:03:29.888Z,19.24
2018-06-28T18:06:02.989Z,19.09
2018-06-28T18:08:34.519Z,18.96
2018-06-28T18:11:06.886Z,18.91
2018-06-28T18:13:48.243Z,18.74
2018-06-28T18:16:21.096Z,18.51
2018-06-28T18:18:53.797Z,18.30
2018-06-28T18:21:27.213Z,17.98
2018-06-28T18:23:58.265Z,17.81
2018-06-28T18:26:28.485Z,17.65
2018-06-28T18:28:59.181Z,17.53
2018-06-28T18:31:28.896Z,17.43
2018-06-28T18:34:02.119Z,17.21
2018-06-28T18:36:32.915Z,17.10
2018-06-28T18:39:19.056Z,16.95
2018-06-28T18:41:48.518Z,16.82
2018-06-28T18:44:18.501Z,16.78
2018-06-28T18:46:48.689Z,16.73
2018-06-28T18:49:18.356Z,16.69
2018-06-28T18:52:18.425Z,16.63
2018-06-28T18:58:58.147Z,16.46
2018-06-28T19:05:16.118Z,16.26
2018-06-28T19:08:01.795Z,16.27
2018-06-28T19:10:37.494Z,16.18
2018-06-28T19:13:07.117Z,16.17
2018-06-28T19:15:41.701Z,16.24
2018-06-28T19:18:11.181Z,16.23
2018-06-28T19:20:40.881Z,16.16
2018-06-28T19:24:15.925Z,16.08
2018-06-28T19:26:45.702Z,15.97
2018-06-28T19:29:20.473Z,15.97
2018-06-28T19:31:55.044Z,15.96
2018-06-28T19:34:24.609Z,15.90
2018-06-28T19:36:54.051Z,15.95
2018-06-28T19:39:28.765Z,15.92
2018-06-28T19:42:03.268Z,15.86
2018-06-28T19:44:32.908Z,15.86
2018-06-28T19:47:02.317Z,15.86
2018-06-28T19:49:37.329Z,15.81
2018-06-28T19:52:11.846Z,15.80
2018-06-28T19:54:41.515Z,15.73
2018-06-28T19:57:10.964Z,15.76
2018-06-28T19:59:46.046Z,15.77
2018-06-28T20:02:21.061Z,15.71
2018-06-28T20:04:50.825Z,15.66
2018-06-28T20:07:20.338Z,15.69
2018-06-28T20:09:50.201Z,15.66
2018-06-28T20:12:24.912Z,15.59
2018-06-28T20:14:59.532Z,15.55
2018-06-28T20:17:34.702Z,15.48
2018-06-28T20:20:26.585Z,15.44
2018-06-28T20:22:56.592Z,15.36
2018-06-28T20:25:26.198Z,15.32
2018-06-28T20:28:00.619Z,15.41
2018-06-28T20:30:35.203Z,15.28
2018-06-28T20:33:09.570Z,15.35
2018-06-28T20:35:39.471Z,15.24
2018-06-28T20:38:09.228Z,15.30
2018-06-28T20:40:39.043Z,15.26
2018-06-28T20:43:08.810Z,15.19
2018-06-28T20:45:38.568Z,15.14
2018-06-28T20:48:08.989Z,15.17
2018-06-28T20:50:38.685Z,15.13
2018-06-28T20:53:08.287Z,15.10
2018-06-28T20:55:38.177Z,15.05
2018-06-28T20:58:07.679Z,14.99
2018-06-28T21:00:38.086Z,15.05
2018-06-28T21:03:09.309Z,14.95
2018-06-28T21:05:39.147Z,14.91
2018-06-28T21:08:08.669Z,14.90
2018-06-28T21:10:38.346Z,14.95
2018-06-28T21:13:07.955Z,14.86
2018-06-28T21:15:37.704Z,14.80
2018-06-28T21:18:07.093Z,14.77
2018-06-28T21:20:36.822Z,14.71
2018-06-28T21:23:06.282Z,14.80
2018-06-28T21:25:36.039Z,14.73
2018-06-28T21:28:05.457Z,14.76
2018-06-28T21:30:35.341Z,14.69
2018-06-28T21:33:04.809Z,14.67
2018-06-28T21:35:34.366Z,14.65
2018-06-28T21:38:03.773Z,14.72
2018-06-28T21:40:33.386Z,14.71
2018-06-28T21:43:03.005Z,14.66
2018-06-28T21:45:32.923Z,14.62
2018-06-28T21:48:02.682Z,14.59
2018-06-28T21:50:32.339Z,14.65
2018-06-28T21:53:01.831Z,14.57
2018-06-28T21:55:31.504Z,14.56
2018-06-28T21:58:01.015Z,14.54
2018-06-28T22:00:36.226Z,14.47
2018-06-28T22:03:07.367Z,14.46
2018-06-28T22:05:37.089Z,14.50
2018-06-28T22:08:07.155Z,14.49
2018-06-28T22:10:36.759Z,14.46
2018-06-28T22:13:06.300Z,14.49
2018-06-28T22:15:35.953Z,14.47
2018-06-28T22:18:06.079Z,14.47
2018-06-28T22:20:35.546Z,14.49
2018-06-28T22:23:05.240Z,14.53
2018-06-28T22:25:34.913Z,14.61
2018-06-28T22:28:04.436Z,14.67
2018-06-28T22:30:34.075Z,14.79
2018-06-28T22:33:03.759Z,14.78
2018-06-28T22:35:33.416Z,14.76
2018-06-28T22:38:02.956Z,14.75
2018-06-28T22:40:32.556Z,14.74
2018-06-28T22:43:02.355Z,14.73
2018-06-28T22:45:32.119Z,14.74
2018-06-28T22:48:01.595Z,14.76
2018-06-28T22:50:31.201Z,14.81
2018-06-28T22:53:00.704Z,14.88
2018-06-28T22:55:30.174Z,14.88
2018-06-28T22:57:59.581Z,14.84
2018-06-28T23:00:32.370Z,14.86
2018-06-28T23:03:01.772Z,14.87
2018-06-28T23:05:31.641Z,14.86
2018-06-28T23:08:01.102Z,14.92
2018-06-28T23:10:31.161Z,14.96
2018-06-28T23:13:00.517Z,14.91
2018-06-28T23:15:31.021Z,14.86
2018-06-28T23:18:00.534Z,14.84
2018-06-28T23:20:30.247Z,14.85
2018-06-28T23:22:59.674Z,15.01
2018-06-28T23:25:29.562Z,15.08
2018-06-28T23:27:59.306Z,15.05
2018-06-28T23:30:28.995Z,15.08
2018-06-28T23:32:58.568Z,15.11
2018-06-28T23:35:28.208Z,15.18
2018-06-28T23:37:57.638Z,15.13
2018-06-28T23:40:27.150Z,15.09
2018-06-28T23:42:56.574Z,15.02
2018-06-28T23:45:26.155Z,14.99
2018-06-28T23:47:55.581Z,14.98
2018-06-28T23:50:25.246Z,14.99
2018-06-28T23:52:55.397Z,14.94
2018-06-28T23:55:25.063Z,14.96
2018-06-28T23:57:54.724Z,15.01
